Time;durP1;ratioP1;P1;durP2;ratioP2;P2;SDS_P1;SDS_P2;PMS_P1;PMS_P2;Temp;Humidity;BMP_temperature;BMP_pressure;BME280_temperature;BME280_humidity;BME280_pressure;Samples;Min_cycle;Max_cycle;Signal;HPM_P1;HPM_P2
2022/12/30 00:01:23;;;;;;;4.03;1.20;;;8.80;99.90;;;;;;4997462;28;21040;-46
2022/12/30 00:03:53;;;;;;;5.00;1.07;;;8.80;99.90;;;;;;4984501;28;21789;-47
2022/12/30 00:06:25;;;;;;;2.57;1.00;;;8.80;99.90;;;;;;5006511;28;20465;-47
2022/12/30 00:08:56;;;;;;;1.70;0.90;;;8.80;99.90;;;;;;5010998;28;20465;-47
2022/12/30 00:11:27;;;;;;;3.27;1.50;;;8.80;99.90;;;;;;4994324;28;20470;-47
2022/12/30 00:33:48;;;;;;;6.10;1.53;;;8.70;99.90;;;;;;4978665;28;20462;-47
2022/12/30 00:36:19;;;;;;;2.80;1.30;;;8.70;99.90;;;;;;4992040;28;20572;-47
2022/12/30 00:38:47;;;;;;;4.00;1.23;;;8.70;99.90;;;;;;4974116;28;20473;-46
2022/12/30 00:44:04;;;;;;;3.30;0.80;;;8.70;99.90;;;;;;4967286;28;20488;-47
2022/12/30 00:46:35;;;;;;;3.70;1.63;;;8.70;99.90;;;;;;4989519;28;20468;-46
2022/12/30 00:57:23;;;;;;;2.27;0.90;;;8.70;99.90;;;;;;4999433;28;20469;-47
2022/12/30 00:59:51;;;;;;;2.58;0.90;;;8.70;99.90;;;;;;4988414;28;20452;-48
2022/12/30 01:02:20;;;;;;;3.00;1.10;;;8.70;99.90;;;;;;4985952;28;20200;-46
2022/12/30 01:04:48;;;;;;;3.73;1.10;;;8.70;99.90;;;;;;5008170;28;20453;-47
2022/12/30 01:07:18;;;;;;;3.00;1.23;;;8.70;99.90;;;;;;5001640;28;20465;-46
2022/12/30 01:09:47;;;;;;;6.80;1.60;;;8.70;99.90;;;;;;4981064;28;20213;-48
2022/12/30 01:12:16;;;;;;;4.30;1.30;;;8.70;99.90;;;;;;4973529;28;20523;-46
2022/12/30 01:14:46;;;;;;;4.70;1.23;;;8.70;99.90;;;;;;4995239;28;20194;-47
2022/12/30 01:17:17;;;;;;;2.28;1.00;;;8.70;99.90;;;;;;4997247;28;20626;-46
2022/12/30 01:19:46;;;;;;;2.03;0.90;;;8.70;99.90;;;;;;5002913;28;20200;-47
2022/12/30 01:22:15;;;;;;;1.80;1.00;;;8.70;99.90;;;;;;4991431;28;21282;-48
2022/12/30 01:24:45;;;;;;;3.23;1.00;;;8.70;99.90;;;;;;4992706;28;20446;-48
2022/12/30 01:27:14;;;;;;;0.88;0.70;;;8.70;99.90;;;;;;4981027;28;20456;-48
2022/12/30 01:29:44;;;;;;;3.23;1.10;;;8.70;99.90;;;;;;4992876;28;20191;-46
2022/12/30 01:32:14;;;;;;;1.93;0.93;;;8.70;99.90;;;;;;4987811;28;20476;-46
2022/12/30 01:34:43;;;;;;;4.55;1.33;;;8.70;99.90;;;;;;5000999;28;20712;-46
2022/12/30 01:37:12;;;;;;;3.50;1.50;;;8.70;99.90;;;;;;4993984;28;20230;-46
2022/12/30 01:39:42;;;;;;;4.83;0.83;;;8.70;99.90;;;;;;4981962;28;20544;-45
2022/12/30 01:42:18;;;;;;;3.87;1.20;;;8.60;99.90;;;;;;4987181;28;20476;-48
2022/12/30 01:44:56;;;;;;;1.13;0.70;;;8.70;99.90;;;;;;4981254;28;20453;-46
2022/12/30 01:47:31;;;;;;;3.13;0.90;;;8.70;99.90;;;;;;4992475;28;20867;-48
2022/12/30 01:50:05;;;;;;;2.35;1.05;;;8.60;99.90;;;;;;4991353;28;20444;-45
2022/12/30 01:52:35;;;;;;;3.70;1.23;;;8.70;99.90;;;;;;4990334;28;20198;-48
2022/12/30 01:55:09;;;;;;;2.40;0.80;;;8.60;99.90;;;;;;4992123;28;20473;-47
2022/12/30 01:57:42;;;;;;;2.17;1.10;;;8.60;99.90;;;;;;5002326;28;20635;-46
2022/12/30 02:00:14;;;;;;;1.30;0.80;;;8.70;99.90;;;;;;4997206;28;20452;-46
2022/12/30 02:02:43;;;;;;;3.37;1.03;;;8.60;99.90;;;;;;4988157;28;20659;-47
2022/12/30 02:05:13;;;;;;;2.00;0.70;;;8.60;99.90;;;;;;4993964;28;20465;-46
2022/12/30 02:07:45;;;;;;;2.07;1.17;;;8.60;99.90;;;;;;5002686;28;20458;-47
2022/12/30 02:10:14;;;;;;;1.03;0.67;;;8.60;99.90;;;;;;4978042;28;20523;-46
2022/12/30 02:12:44;;;;;;;2.80;1.20;;;8.60;99.90;;;;;;4983070;28;20513;-46
2022/12/30 02:15:14;;;;;;;3.40;0.97;;;8.60;99.90;;;;;;4984749;28;20514;-47
2022/12/30 02:17:55;;;;;;;3.00;1.17;;;8.60;99.90;;;;;;4987484;28;21189;-45
2022/12/30 02:21:02;;;;;;;2.20;0.90;;;8.60;99.90;;;;;;4979139;28;20456;-46
2022/12/30 02:23:54;;;;;;;2.30;1.10;;;8.60;99.90;;;;;;4995828;28;20198;-47
2022/12/30 02:26:49;;;;;;;1.73;0.93;;;8.60;99.90;;;;;;4988961;28;20468;-45
2022/12/30 02:29:45;;;;;;;3.97;0.87;;;8.60;99.90;;;;;;4987916;28;20472;-46
2022/12/30 02:32:24;;;;;;;2.70;1.10;;;8.60;99.90;;;;;;4972640;28;20472;-47
2022/12/30 02:35:03;;;;;;;4.70;1.10;;;8.60;99.90;;;;;;4984010;28;20434;-47
2022/12/30 02:37:38;;;;;;;2.70;0.77;;;8.60;99.90;;;;;;5001460;28;20460;-47
2022/12/30 02:40:13;;;;;;;2.38;0.88;;;8.60;99.90;;;;;;4989799;28;20205;-46
2022/12/30 02:45:37;;;;;;;3.63;1.52;;;8.60;99.90;;;;;;5001151;28;20356;-48
2022/12/30 02:48:13;;;;;;;1.97;1.10;;;8.60;99.90;;;;;;4987213;28;20237;-47
2022/12/30 02:53:34;;;;;;;2.00;0.90;;;8.60;99.90;;;;;;4998656;28;20532;-47
2022/12/30 02:56:03;;;;;;;1.60;1.00;;;8.60;99.90;;;;;;4984212;28;20473;-47
2022/12/30 02:58:37;;;;;;;2.25;0.85;;;8.60;99.90;;;;;;5004729;28;20309;-47
2022/12/30 03:04:16;;;;;;;4.95;1.65;;;8.60;99.90;;;;;;4995118;28;20444;-48
2022/12/30 03:07:05;;;;;;;2.95;0.70;;;8.60;99.90;;;;;;4982156;28;20230;-47
2022/12/30 03:12:48;;;;;;;2.25;1.00;;;8.50;99.90;;;;;;4977093;28;20634;-47
2022/12/30 03:15:24;;;;;;;2.25;1.00;;;8.50;99.90;;;;;;4988549;28;20720;-48
2022/12/30 03:17:54;;;;;;;3.15;0.80;;;8.50;99.90;;;;;;4979847;28;20233;-47
2022/12/30 03:20:27;;;;;;;1.20;0.70;;;8.50;99.90;;;;;;5001427;28;20240;-46
2022/12/30 03:28:32;;;;;;;1.50;0.70;;;8.50;99.90;;;;;;4994687;28;20241;-46
2022/12/30 03:31:03;;;;;;;1.30;1.08;;;8.50;99.90;;;;;;4993514;28;20741;-47
2022/12/30 03:33:33;;;;;;;2.70;1.23;;;8.50;99.90;;;;;;4996887;28;20778;-46
2022/12/30 03:36:09;;;;;;;2.45;1.00;;;8.50;99.90;;;;;;5001339;28;20198;-47
2022/12/30 03:38:40;;;;;;;2.95;0.95;;;8.50;99.90;;;;;;4982110;28;20719;-46
2022/12/30 03:41:12;;;;;;;4.70;1.00;;;8.50;99.90;;;;;;4983966;28;20228;-47
2022/12/30 03:43:42;;;;;;;1.92;0.77;;;8.50;99.90;;;;;;4999921;28;20222;-46
2022/12/30 03:46:11;;;;;;;1.27;0.70;;;8.50;99.90;;;;;;4983571;28;20202;-46
2022/12/30 03:48:40;;;;;;;4.37;0.87;;;8.50;99.90;;;;;;4996313;28;20477;-47
2022/12/30 03:51:10;;;;;;;1.83;1.30;;;8.50;99.90;;;;;;4991839;28;20471;-46
2022/12/30 03:53:39;;;;;;;2.93;0.97;;;8.50;99.90;;;;;;4988878;28;20452;-47
2022/12/30 03:56:08;;;;;;;3.42;1.33;;;8.50;99.90;;;;;;4978022;28;20453;-48
2022/12/30 03:58:36;;;;;;;2.67;1.47;;;8.50;99.90;;;;;;4988155;28;20214;-47
2022/12/30 04:01:05;;;;;;;1.75;0.93;;;8.50;99.90;;;;;;4977952;28;20448;-48
2022/12/30 04:03:35;;;;;;;6.05;1.50;;;8.50;99.90;;;;;;4975724;28;20722;-47
2022/12/30 04:06:04;;;;;;;1.40;1.00;;;8.50;99.90;;;;;;4992738;28;20233;-47
2022/12/30 04:08:35;;;;;;;4.70;1.15;;;8.50;99.90;;;;;;5000391;28;20218;-47
2022/12/30 04:11:03;;;;;;;1.70;1.10;;;8.50;99.90;;;;;;4981571;28;20272;-46
2022/12/30 04:13:32;;;;;;;2.20;1.00;;;8.50;99.90;;;;;;4973965;28;20195;-47
2022/12/30 04:16:01;;;;;;;2.15;0.73;;;8.50;99.90;;;;;;4991791;28;20225;-47
2022/12/30 04:18:30;;;;;;;1.67;0.80;;;8.50;99.90;;;;;;4984484;28;20330;-46
2022/12/30 04:20:58;;;;;;;3.42;0.95;;;8.50;99.90;;;;;;4990464;28;20226;-47
2022/12/30 04:23:27;;;;;;;4.10;1.05;;;8.50;99.90;;;;;;4997864;28;20199;-46
2022/12/30 04:25:59;;;;;;;1.50;1.40;;;8.50;99.90;;;;;;4973971;28;20232;-47
2022/12/30 04:28:27;;;;;;;1.73;1.02;;;8.50;99.90;;;;;;4991120;28;20210;-47
2022/12/30 04:30:56;;;;;;;2.17;1.20;;;8.40;99.90;;;;;;4979482;28;20253;-46
2022/12/30 04:33:25;;;;;;;2.45;1.17;;;8.40;99.90;;;;;;5004583;28;20897;-47
2022/12/30 04:35:53;;;;;;;2.08;1.10;;;8.40;99.90;;;;;;5005658;28;20217;-47
2022/12/30 04:38:22;;;;;;;3.30;1.60;;;8.40;99.90;;;;;;4994546;28;20303;-47
2022/12/30 04:40:51;;;;;;;2.63;1.42;;;8.40;99.90;;;;;;4980401;28;20277;-47
2022/12/30 04:43:21;;;;;;;1.00;0.80;;;8.40;99.90;;;;;;4990588;28;20193;-47
2022/12/30 04:45:50;;;;;;;3.03;1.03;;;8.40;99.90;;;;;;4985202;28;20784;-48
2022/12/30 04:48:19;;;;;;;1.65;1.15;;;8.40;99.90;;;;;;4996185;28;20465;-48
2022/12/30 04:50:49;;;;;;;2.35;1.08;;;8.40;99.90;;;;;;4983204;28;20270;-45
2022/12/30 04:53:18;;;;;;;1.63;0.97;;;8.40;99.90;;;;;;4981675;28;20193;-47
2022/12/30 04:55:51;;;;;;;1.60;0.75;;;8.40;99.90;;;;;;4974107;28;20465;-47
2022/12/30 04:58:23;;;;;;;1.58;0.57;;;8.40;99.90;;;;;;4982048;28;20320;-46
2022/12/30 05:00:53;;;;;;;5.45;2.65;;;8.40;99.90;;;;;;4966986;28;20202;-46
2022/12/30 05:03:22;;;;;;;2.83;1.20;;;8.40;99.90;;;;;;4988586;28;20771;-47
2022/12/30 05:05:51;;;;;;;2.85;1.02;;;8.40;99.90;;;;;;4979867;28;20198;-46
2022/12/30 05:08:20;;;;;;;1.60;1.27;;;8.40;99.90;;;;;;4985747;28;20217;-46
2022/12/30 05:10:48;;;;;;;2.33;1.27;;;8.40;99.90;;;;;;4973842;28;20222;-47
2022/12/30 05:13:16;;;;;;;4.63;1.77;;;8.40;99.90;;;;;;5003923;28;20690;-48
2022/12/30 05:15:46;;;;;;;2.07;0.93;;;8.40;99.90;;;;;;4982897;28;20234;-46
2022/12/30 05:18:15;;;;;;;2.92;0.85;;;8.40;99.90;;;;;;4973324;28;20473;-45
2022/12/30 05:20:46;;;;;;;1.50;0.90;;;8.40;99.90;;;;;;4986006;28;20213;-49
2022/12/30 05:26:16;;;;;;;2.85;1.63;;;8.40;99.90;;;;;;4980618;28;20225;-47
2022/12/30 05:28:46;;;;;;;4.13;1.40;;;8.40;99.90;;;;;;5002878;28;20876;-46
2022/12/30 05:31:18;;;;;;;3.60;1.15;;;8.40;99.90;;;;;;4995840;28;20234;-48
2022/12/30 05:33:47;;;;;;;1.90;1.00;;;8.40;99.90;;;;;;4978689;28;20671;-47
2022/12/30 05:36:16;;;;;;;2.95;1.30;;;8.40;99.90;;;;;;4976294;28;20862;-46
2022/12/30 05:38:45;;;;;;;3.20;1.10;;;8.40;99.90;;;;;;4974007;28;20718;-46
2022/12/30 05:41:14;;;;;;;1.23;0.82;;;8.40;99.90;;;;;;4990220;28;20222;-45
2022/12/30 05:43:47;;;;;;;1.00;0.70;;;8.40;99.90;;;;;;4997657;28;20738;-47
2022/12/30 05:46:18;;;;;;;1.58;0.90;;;8.40;99.90;;;;;;4991636;28;20272;-48
2022/12/30 05:48:46;;;;;;;4.10;0.98;;;8.30;99.90;;;;;;4992077;28;20214;-48
2022/12/30 05:51:15;;;;;;;1.65;0.90;;;8.30;99.90;;;;;;4994760;28;20839;-46
2022/12/30 05:53:44;;;;;;;2.75;0.95;;;8.30;99.90;;;;;;4976766;28;20186;-49
2022/12/30 05:56:12;;;;;;;2.00;1.00;;;8.30;99.90;;;;;;4980095;28;20233;-47
2022/12/30 05:58:41;;;;;;;8.10;1.40;;;8.30;99.90;;;;;;4984997;28;20221;-46
2022/12/30 06:01:10;;;;;;;1.90;0.90;;;8.30;99.90;;;;;;4992682;28;20222;-48
2022/12/30 06:03:39;;;;;;;1.50;0.80;;;8.30;99.90;;;;;;4999237;28;20198;-47
2022/12/30 06:06:10;;;;;;;2.35;0.98;;;8.30;99.90;;;;;;4987437;28;20285;-46
2022/12/30 06:08:39;;;;;;;1.15;0.90;;;8.30;99.90;;;;;;4984184;28;20738;-48
2022/12/30 06:11:08;;;;;;;3.33;1.33;;;8.30;99.90;;;;;;4975303;28;20278;-48
2022/12/30 06:13:37;;;;;;;1.70;0.93;;;8.30;99.90;;;;;;4983687;28;20202;-47
2022/12/30 06:16:06;;;;;;;2.67;1.23;;;8.30;99.90;;;;;;5004781;28;20205;-48
2022/12/30 06:18:35;;;;;;;2.05;0.82;;;8.30;99.90;;;;;;5001096;28;20229;-48
2022/12/30 06:21:05;;;;;;;2.60;0.90;;;8.30;99.90;;;;;;4987223;28;20224;-46
2022/12/30 06:23:34;;;;;;;1.52;1.00;;;8.30;99.90;;;;;;4978204;28;20201;-47
2022/12/30 06:26:03;;;;;;;2.17;1.10;;;8.30;99.90;;;;;;4984891;28;20594;-46
2022/12/30 06:28:31;;;;;;;6.05;1.02;;;8.30;99.90;;;;;;4995801;28;20306;-47
2022/12/30 06:31:00;;;;;;;1.73;1.10;;;8.30;99.90;;;;;;4990992;28;20233;-47
2022/12/30 06:33:29;;;;;;;1.35;0.75;;;8.30;99.90;;;;;;4988047;28;20202;-48
2022/12/30 06:35:57;;;;;;;1.15;0.82;;;8.30;99.90;;;;;;4976124;28;20233;-47
2022/12/30 06:38:27;;;;;;;1.70;0.87;;;8.30;99.90;;;;;;4987802;28;20226;-48
2022/12/30 06:40:56;;;;;;;2.93;1.50;;;8.30;99.90;;;;;;4988782;28;20525;-47
2022/12/30 06:43:24;;;;;;;0.90;0.70;;;8.30;99.90;;;;;;4976368;28;20492;-48
2022/12/30 06:45:53;;;;;;;2.67;1.35;;;8.30;99.90;;;;;;4986504;28;20218;-47
2022/12/30 06:48:21;;;;;;;3.08;1.00;;;8.30;99.90;;;;;;4996692;28;20726;-46
2022/12/30 06:50:50;;;;;;;0.90;0.60;;;8.30;99.90;;;;;;4977926;28;20206;-48
2022/12/30 06:53:19;;;;;;;2.65;0.80;;;8.30;99.90;;;;;;4985834;28;20540;-47
2022/12/30 06:55:49;;;;;;;2.22;1.08;;;8.30;99.90;;;;;;4986861;28;20226;-49
2022/12/30 06:58:17;;;;;;;1.10;0.70;;;8.30;99.90;;;;;;4986982;28;20241;-48
2022/12/30 07:00:46;;;;;;;2.40;1.05;;;8.30;99.90;;;;;;4984663;28;20628;-45
2022/12/30 07:03:15;;;;;;;2.77;1.00;;;8.30;99.90;;;;;;4993938;28;20706;-46
2022/12/30 07:05:43;;;;;;;3.40;0.93;;;8.30;99.90;;;;;;4977302;28;20483;-46
2022/12/30 07:08:12;;;;;;;1.55;0.80;;;8.30;99.90;;;;;;4980580;28;20472;-47
2022/12/30 07:10:41;;;;;;;2.10;0.87;;;8.30;99.90;;;;;;4987629;28;20244;-47
2022/12/30 07:13:17;;;;;;;2.17;0.90;;;8.30;99.90;;;;;;4982785;28;20591;-47
2022/12/30 07:15:45;;;;;;;1.70;0.77;;;8.30;99.90;;;;;;4977464;28;20470;-47
2022/12/30 07:18:14;;;;;;;2.07;0.97;;;8.30;99.90;;;;;;4992308;28;20222;-47
2022/12/30 07:20:43;;;;;;;2.08;0.80;;;8.30;99.90;;;;;;4999096;28;20677;-46
2022/12/30 07:23:13;;;;;;;1.60;0.45;;;8.30;99.90;;;;;;4981484;28;20201;-45
2022/12/30 07:25:45;;;;;;;1.10;0.70;;;8.20;99.90;;;;;;4995269;28;20183;-46
2022/12/30 07:28:16;;;;;;;0.90;0.80;;;8.30;99.90;;;;;;4984261;28;20305;-47
2022/12/30 07:30:45;;;;;;;1.77;1.25;;;8.20;99.90;;;;;;4997621;28;20477;-46
2022/12/30 07:33:14;;;;;;;0.80;0.40;;;8.20;99.90;;;;;;4982603;28;20214;-46
2022/12/30 07:35:42;;;;;;;0.77;0.60;;;8.20;99.90;;;;;;4979167;28;20528;-46
2022/12/30 07:38:11;;;;;;;1.63;1.00;;;8.20;99.90;;;;;;5005899;28;20222;-47
2022/12/30 07:40:39;;;;;;;0.75;0.55;;;8.20;99.90;;;;;;4999678;28;20209;-47
2022/12/30 07:43:08;;;;;;;2.17;0.80;;;8.20;99.90;;;;;;4987248;28;20190;-45
2022/12/30 07:45:39;;;;;;;1.05;0.60;;;8.20;99.90;;;;;;4983142;28;20542;-46
2022/12/30 07:48:07;;;;;;;0.70;0.60;;;8.20;99.90;;;;;;4985790;28;20227;-47
2022/12/30 07:50:39;;;;;;;1.63;1.52;;;8.20;99.90;;;;;;4987197;28;20198;-46
2022/12/30 07:53:08;;;;;;;1.90;0.60;;;8.20;99.90;;;;;;5004134;28;20245;-47
2022/12/30 07:55:40;;;;;;;0.90;0.65;;;8.20;99.90;;;;;;4984625;28;20265;-46
2022/12/30 07:58:09;;;;;;;2.08;0.77;;;8.20;99.90;;;;;;4985232;28;20842;-46
2022/12/30 08:00:39;;;;;;;4.40;0.85;;;8.20;99.90;;;;;;4981248;28;20217;-46
2022/12/30 08:03:10;;;;;;;2.97;0.77;;;8.20;99.90;;;;;;5001267;28;20190;-47
2022/12/30 08:05:38;;;;;;;1.73;1.00;;;8.20;99.90;;;;;;4999306;28;20582;-46
2022/12/30 08:08:08;;;;;;;2.65;1.10;;;8.20;99.90;;;;;;5000436;28;20316;-46
2022/12/30 08:10:37;;;;;;;0.98;0.80;;;8.20;99.90;;;;;;4980805;28;20253;-48
2022/12/30 08:13:05;;;;;;;0.80;0.75;;;8.20;99.90;;;;;;4965258;28;20762;-46
2022/12/30 08:15:34;;;;;;;2.80;0.85;;;8.20;99.90;;;;;;4991605;28;20576;-47
2022/12/30 08:18:06;;;;;;;1.90;1.02;;;8.20;99.90;;;;;;4989937;28;20221;-45
2022/12/30 08:20:34;;;;;;;2.13;0.80;;;8.20;99.90;;;;;;4985925;28;20207;-47
2022/12/30 08:23:04;;;;;;;1.45;0.80;;;8.20;99.90;;;;;;4981894;28;20190;-46
2022/12/30 08:25:33;;;;;;;3.92;0.90;;;8.20;99.90;;;;;;5002986;28;20574;-46
2022/12/30 08:28:01;;;;;;;2.00;0.57;;;8.20;99.90;;;;;;4988261;28;20224;-47
2022/12/30 08:30:30;;;;;;;2.92;1.10;;;8.20;99.90;;;;;;4973414;28;20820;-47
2022/12/30 08:32:58;;;;;;;1.65;0.70;;;8.20;99.90;;;;;;4987764;28;20260;-47
2022/12/30 08:35:28;;;;;;;1.00;0.70;;;8.20;99.90;;;;;;4984985;28;20317;-48
2022/12/30 08:37:57;;;;;;;1.00;0.73;;;8.20;99.90;;;;;;4987387;28;20674;-47
2022/12/30 08:40:26;;;;;;;2.03;0.60;;;8.20;99.90;;;;;;4979745;28;20237;-46
2022/12/30 08:42:54;;;;;;;1.13;0.80;;;8.20;99.90;;;;;;4984201;28;20200;-47
2022/12/30 08:45:23;;;;;;;2.05;0.77;;;8.20;99.90;;;;;;4997524;28;20222;-48
2022/12/30 08:47:52;;;;;;;1.98;0.60;;;8.20;99.90;;;;;;4970482;28;20221;-47
2022/12/30 08:50:21;;;;;;;2.00;1.73;;;8.20;99.90;;;;;;4989770;28;20202;-47
2022/12/30 08:52:52;;;;;;;1.00;0.77;;;8.20;99.90;;;;;;4990431;28;20198;-48
2022/12/30 08:55:20;;;;;;;2.08;1.10;;;8.20;99.90;;;;;;5002522;28;20700;-49
2022/12/30 08:57:49;;;;;;;1.50;0.70;;;8.10;99.90;;;;;;4980297;28;20222;-47
2022/12/30 09:00:18;;;;;;;1.92;1.33;;;8.20;99.90;;;;;;4982549;28;20441;-46
2022/12/30 09:02:47;;;;;;;1.67;0.70;;;8.20;99.90;;;;;;4995302;28;20549;-48
2022/12/30 09:05:16;;;;;;;1.13;0.77;;;8.20;99.90;;;;;;4968982;28;20209;-46
2022/12/30 09:07:44;;;;;;;2.55;0.95;;;8.20;99.90;;;;;;4977904;28;20234;-47
2022/12/30 09:10:27;;;;;;;1.52;0.63;;;8.10;99.90;;;;;;4966634;28;20573;-46
2022/12/30 09:12:56;;;;;;;1.25;0.55;;;8.20;99.90;;;;;;4985115;28;20750;-48
2022/12/30 09:15:25;;;;;;;1.77;0.77;;;8.10;99.90;;;;;;4976561;28;20226;-46
2022/12/30 09:17:53;;;;;;;1.48;1.00;;;8.20;99.90;;;;;;4986397;28;20228;-46
2022/12/30 09:20:22;;;;;;;1.42;0.82;;;8.10;99.90;;;;;;5005189;28;20200;-47
2022/12/30 09:22:51;;;;;;;1.60;1.00;;;8.10;99.90;;;;;;4995717;28;20309;-46
2022/12/30 09:25:20;;;;;;;2.17;1.30;;;8.10;99.90;;;;;;5000363;28;20441;-45
2022/12/30 09:27:50;;;;;;;1.73;1.03;;;8.10;99.90;;;;;;4999969;28;20515;-47
2022/12/30 09:30:19;;;;;;;4.30;1.17;;;8.10;99.90;;;;;;4991716;28;20518;-46
2022/12/30 09:32:47;;;;;;;1.95;0.93;;;8.10;99.90;;;;;;4989089;28;20222;-45
2022/12/30 09:35:16;;;;;;;2.10;1.70;;;8.10;99.90;;;;;;4984533;28;20341;-46
2022/12/30 09:37:45;;;;;;;2.60;0.98;;;8.10;99.90;;;;;;4991224;28;20218;-46
2022/12/30 09:40:16;;;;;;;3.78;1.08;;;8.10;99.90;;;;;;5001081;28;20194;-46
2022/12/30 09:45:45;;;;;;;2.05;1.10;;;8.10;99.90;;;;;;5011423;28;20266;-46
2022/12/30 09:48:20;;;;;;;3.30;0.93;;;8.10;99.90;;;;;;5021355;28;20217;-46
2022/12/30 09:50:52;;;;;;;1.00;0.73;;;8.10;99.90;;;;;;5017290;28;20249;-45
2022/12/30 09:53:32;;;;;;;2.63;1.17;;;8.10;99.90;;;;;;5004565;28;20205;-47
2022/12/30 09:56:04;;;;;;;2.88;1.10;;;8.10;99.90;;;;;;4986668;28;20884;-46
2022/12/30 09:58:35;;;;;;;3.88;1.30;;;8.10;99.90;;;;;;4988666;28;20363;-47
2022/12/30 10:01:16;;;;;;;1.55;1.17;;;8.10;99.90;;;;;;4987969;28;20198;-44
2022/12/30 10:03:44;;;;;;;1.43;0.97;;;8.10;99.90;;;;;;5009655;28;20194;-48
2022/12/30 10:06:37;;;;;;;2.95;1.00;;;8.10;99.90;;;;;;5005516;28;20508;-47
2022/12/30 10:09:37;;;;;;;1.75;0.95;;;8.10;99.90;;;;;;4998930;28;20257;-47
2022/12/30 10:12:34;;;;;;;3.90;0.93;;;8.10;99.90;;;;;;4994586;28;20217;-46
2022/12/30 10:15:17;;;;;;;2.78;1.20;;;8.10;99.90;;;;;;5000477;28;20229;-46
2022/12/30 10:18:13;;;;;;;2.00;0.80;;;8.10;99.90;;;;;;4984160;28;20666;-46
2022/12/30 10:21:00;;;;;;;2.10;1.63;;;8.10;99.90;;;;;;5000736;28;20190;-46
2022/12/30 10:23:49;;;;;;;2.85;1.13;;;8.10;99.90;;;;;;4999445;28;20441;-46
2022/12/30 10:26:21;;;;;;;4.05;1.02;;;8.10;99.90;;;;;;4988779;28;20414;-48
2022/12/30 10:28:56;;;;;;;0.90;0.70;;;8.10;99.90;;;;;;4988991;28;20249;-46
2022/12/30 10:31:29;;;;;;;2.55;0.90;;;8.10;99.90;;;;;;4985903;28;20225;-47
2022/12/30 10:34:05;;;;;;;1.60;1.02;;;8.10;99.90;;;;;;4985065;28;20198;-46
2022/12/30 10:36:38;;;;;;;1.63;0.50;;;8.10;99.90;;;;;;5004860;28;20213;-46
2022/12/30 10:39:16;;;;;;;3.95;0.80;;;8.10;99.90;;;;;;5014245;28;20238;-46
2022/12/30 10:42:05;;;;;;;3.67;1.25;;;8.10;99.90;;;;;;5010400;28;20232;-47
2022/12/30 10:44:45;;;;;;;2.83;1.08;;;8.10;99.90;;;;;;4982218;28;20191;-46
2022/12/30 10:47:32;;;;;;;0.90;0.73;;;8.00;99.90;;;;;;5001722;28;20757;-47
2022/12/30 10:50:18;;;;;;;1.67;1.00;;;8.00;99.90;;;;;;4986202;28;20194;-46
2022/12/30 10:52:47;;;;;;;3.47;1.13;;;8.10;99.90;;;;;;4982453;28;20296;-46
2022/12/30 10:55:20;;;;;;;1.70;0.85;;;8.10;99.90;;;;;;4989346;28;20194;-46
2022/12/30 10:57:52;;;;;;;1.35;0.68;;;8.10;99.90;;;;;;5005349;28;20264;-46
2022/12/30 11:00:21;;;;;;;5.75;1.23;;;8.00;99.90;;;;;;4994817;28;20299;-47
2022/12/30 11:02:56;;;;;;;1.70;0.98;;;8.00;99.90;;;;;;5010431;28;20324;-46
2022/12/30 11:05:38;;;;;;;1.88;0.93;;;8.00;99.90;;;;;;4992450;28;20201;-47
2022/12/30 11:08:19;;;;;;;0.97;0.80;;;8.00;99.90;;;;;;4996124;28;20556;-45
2022/12/30 11:10:59;;;;;;;2.05;0.85;;;8.00;99.90;;;;;;4976757;28;20557;-47
2022/12/30 11:16:13;;;;;;;2.28;1.27;;;8.00;99.90;;;;;;5004194;28;20577;-47
2022/12/30 11:18:45;;;;;;;1.90;0.73;;;8.00;99.90;;;;;;4995808;28;20217;-47
2022/12/30 11:21:24;;;;;;;2.75;0.95;;;8.00;99.90;;;;;;4998442;28;20223;-45
2022/12/30 11:23:55;;;;;;;1.17;0.60;;;8.00;99.90;;;;;;4982741;28;20242;-47
2022/12/30 11:26:26;;;;;;;1.88;0.60;;;8.00;99.90;;;;;;4979712;28;20229;-47
2022/12/30 11:28:57;;;;;;;2.38;0.98;;;8.00;99.90;;;;;;4992958;28;20226;-44
2022/12/30 11:31:33;;;;;;;2.58;1.10;;;8.00;99.90;;;;;;4998897;28;20221;-46
2022/12/30 11:34:04;;;;;;;5.10;1.10;;;8.00;99.90;;;;;;4988350;28;20296;-46
2022/12/30 11:36:35;;;;;;;2.50;1.08;;;8.00;99.90;;;;;;4994552;28;20218;-46
2022/12/30 11:39:24;;;;;;;1.58;0.68;;;8.00;99.90;;;;;;4993440;28;20225;-46
2022/12/30 11:41:54;;;;;;;3.60;1.17;;;8.00;99.90;;;;;;5002962;28;20223;-46
2022/12/30 11:44:24;;;;;;;2.83;0.90;;;8.00;99.90;;;;;;4990593;28;20238;-45
2022/12/30 11:46:55;;;;;;;4.25;0.98;;;8.00;99.90;;;;;;4984201;28;20496;-46
2022/12/30 11:49:35;;;;;;;3.25;0.90;;;8.00;99.90;;;;;;4989993;28;20308;-45
2022/12/30 11:52:14;;;;;;;2.22;1.00;;;8.00;99.90;;;;;;4989453;28;20229;-47
2022/12/30 11:54:45;;;;;;;2.97;0.82;;;8.00;99.90;;;;;;5003574;28;20674;-46
2022/12/30 11:57:24;;;;;;;1.90;0.80;;;8.00;99.90;;;;;;4989258;28;20213;-46
2022/12/30 11:59:55;;;;;;;1.92;0.95;;;8.00;99.90;;;;;;4986139;28;20548;-46
2022/12/30 12:02:27;;;;;;;1.23;0.60;;;8.00;99.90;;;;;;4984366;28;20230;-46
2022/12/30 12:04:56;;;;;;;1.15;0.70;;;8.00;99.90;;;;;;5007235;28;20259;-45
2022/12/30 12:07:33;;;;;;;1.65;0.90;;;8.00;99.90;;;;;;4982725;28;20782;-45
2022/12/30 12:10:15;;;;;;;1.23;0.68;;;8.00;99.90;;;;;;4994362;28;20202;-45
2022/12/30 12:12:48;;;;;;;2.13;0.70;;;8.00;99.90;;;;;;4996772;28;20218;-45
2022/12/30 12:15:28;;;;;;;1.70;0.90;;;8.00;99.90;;;;;;4996949;28;20289;-46
2022/12/30 12:18:01;;;;;;;1.13;0.75;;;8.00;99.90;;;;;;4979279;28;20228;-45
2022/12/30 12:20:35;;;;;;;2.20;0.75;;;8.00;99.90;;;;;;4998675;28;20230;-45
2022/12/30 12:23:21;;;;;;;3.00;0.80;;;8.00;99.90;;;;;;4990981;28;20497;-45
2022/12/30 12:26:01;;;;;;;1.40;0.88;;;8.00;99.90;;;;;;4995942;28;20213;-46
2022/12/30 12:28:33;;;;;;;2.15;0.70;;;8.00;99.90;;;;;;4999547;28;20222;-47
2022/12/30 12:31:27;;;;;;;1.73;1.05;;;8.00;99.90;;;;;;4980276;28;20223;-46
2022/12/30 12:34:03;;;;;;;1.90;1.15;;;8.00;99.90;;;;;;4990039;28;20587;-46
2022/12/30 12:36:40;;;;;;;1.30;1.20;;;8.00;99.90;;;;;;5000773;28;20217;-46
2022/12/30 12:39:14;;;;;;;1.80;0.80;;;8.00;99.90;;;;;;4982924;28;20276;-47
2022/12/30 12:42:00;;;;;;;1.35;0.80;;;8.00;99.90;;;;;;4994073;28;20225;-45
2022/12/30 12:44:53;;;;;;;1.98;0.75;;;7.90;99.90;;;;;;4997378;28;20241;-46
2022/12/30 12:47:47;;;;;;;1.23;1.05;;;8.00;99.90;;;;;;4975582;28;20220;-46
2022/12/30 12:50:31;;;;;;;2.05;0.80;;;8.00;99.90;;;;;;4977153;28;20463;-47
2022/12/30 12:53:10;;;;;;;2.97;0.70;;;8.00;99.90;;;;;;4988447;28;20214;-46
2022/12/30 12:55:57;;;;;;;1.13;0.90;;;8.00;99.90;;;;;;4991225;28;20222;-44
2022/12/30 12:58:38;;;;;;;1.70;0.98;;;8.00;99.90;;;;;;4984688;28;20214;-47
2022/12/30 13:01:16;;;;;;;4.70;1.08;;;8.00;99.90;;;;;;4986285;28;20209;-46
2022/12/30 13:04:13;;;;;;;0.80;0.60;;;8.00;99.90;;;;;;4994166;28;20226;-47
2022/12/30 13:06:47;;;;;;;1.80;1.08;;;8.00;99.90;;;;;;5000262;28;20352;-46
2022/12/30 13:09:43;;;;;;;1.38;1.10;;;8.00;99.90;;;;;;4999210;28;20246;-45
2022/12/30 13:12:18;;;;;;;2.50;1.25;;;8.00;99.90;;;;;;4992435;28;20226;-46
2022/12/30 13:14:50;;;;;;;1.25;0.90;;;8.00;99.90;;;;;;5000375;28;20631;-46
2022/12/30 13:17:24;;;;;;;1.48;0.82;;;8.00;99.90;;;;;;4978954;28;20305;-48
2022/12/30 13:19:55;;;;;;;1.98;0.90;;;8.00;99.90;;;;;;5003678;28;20308;-48
2022/12/30 13:22:34;;;;;;;1.85;1.15;;;8.00;99.90;;;;;;4986679;28;20320;-46
2022/12/30 13:25:12;;;;;;;1.42;0.80;;;7.90;99.90;;;;;;4979741;28;20202;-45
2022/12/30 13:27:50;;;;;;;2.10;0.98;;;8.00;99.90;;;;;;4977849;28;20703;-46
2022/12/30 13:30:20;;;;;;;1.15;0.90;;;8.00;99.90;;;;;;4987943;28;20657;-45
2022/12/30 13:32:54;;;;;;;2.25;0.60;;;7.90;99.90;;;;;;4982220;28;20557;-45
2022/12/30 13:35:38;;;;;;;1.30;0.93;;;8.00;99.90;;;;;;4993181;28;20218;-46
2022/12/30 13:38:19;;;;;;;0.98;0.80;;;7.90;99.90;;;;;;4980676;28;20763;-47
2022/12/30 13:41:02;;;;;;;1.73;0.70;;;8.00;99.90;;;;;;4986848;28;20218;-45
2022/12/30 13:43:42;;;;;;;1.35;0.80;;;7.90;99.90;;;;;;4980944;28;20809;-46
2022/12/30 13:46:18;;;;;;;2.15;0.88;;;7.90;99.90;;;;;;5002830;28;20639;-46
2022/12/30 13:48:50;;;;;;;1.67;0.90;;;7.90;99.90;;;;;;4980669;28;20711;-46
2022/12/30 13:51:22;;;;;;;0.95;0.85;;;7.90;99.90;;;;;;4985310;28;20202;-47
2022/12/30 13:53:53;;;;;;;1.42;1.02;;;7.90;99.90;;;;;;4988798;28;20190;-46
2022/12/30 13:56:34;;;;;;;1.08;0.88;;;7.90;99.90;;;;;;5003414;28;20233;-45
2022/12/30 13:59:05;;;;;;;1.00;0.80;;;7.90;99.90;;;;;;4983000;28;20276;-47
2022/12/30 14:01:36;;;;;;;1.17;0.80;;;7.90;99.90;;;;;;4983320;28;20308;-46
2022/12/30 14:04:34;;;;;;;2.78;0.73;;;7.90;99.90;;;;;;4987625;28;20248;-46
2022/12/30 14:07:02;;;;;;;1.58;0.90;;;7.90;99.90;;;;;;4990502;28;20230;-45
2022/12/30 14:09:33;;;;;;;2.92;1.15;;;7.90;99.90;;;;;;4987279;28;20220;-46
2022/12/30 14:12:31;;;;;;;2.15;0.70;;;8.00;99.90;;;;;;4986879;28;20222;-47
2022/12/30 14:15:37;;;;;;;0.80;0.63;;;7.90;99.90;;;;;;4966978;28;20233;-45
2022/12/30 14:18:18;;;;;;;1.73;0.88;;;7.90;99.90;;;;;;5011648;28;20234;-47
2022/12/30 14:20:54;;;;;;;1.13;0.50;;;7.90;99.90;;;;;;4993344;28;20228;-46
2022/12/30 14:23:39;;;;;;;0.65;0.63;;;8.00;99.90;;;;;;4982702;28;20205;-46
2022/12/30 14:26:36;;;;;;;1.92;0.88;;;8.00;99.90;;;;;;4992430;28;20230;-45